PHTO

Hilo International Airport

Hilo, Hawaii, USA
PHTO 200520Z 2006/2106 22004KT P6SM VCSH SCT025 BKN045 TEMPO 2007/2011 VRB04KT -SHRA BKN025 BKN035 FM202000 12010KT P6SM SCT025 BKN045 FM210400 VRB05KT P6SM SCT025 BKN045
Issued Valid From Valid To
Jan-20 @ 05:20 UTC
(6 hours ago)
Jan-20 @ 06:00 UTC
(5 hours ago)
Jan-21 @ 06:00 UTC
(in 19 hours)
Jan-20 @ 06:00 to Jan-20 @ 20:00
PHTO 200520Z 2006/2106 22004KT P6SM VCSH SCT025 BKN045
Wind Visibility Clouds
220° at 4 knots Greater than 6 miles
  • Scattered at 2,500' AGL
  • Broken at 4,500' AGL
Temporary Jan-20 @ 07:00 to Jan-20 @ 11:00
TEMPO 2007/2011 VRB04KT -SHRA BKN025 BKN035
Wind Clouds Conditions
Variable at 4 knots
  • Broken at 2,500' AGL
  • Broken at 3,500' AGL
  • Light Rain
From Jan-20 @ 20:00 to Jan-21 @ 04:00
FM202000 12010KT P6SM SCT025 BKN045
Wind Visibility Clouds
120° at 10 knots Greater than 6 miles
  • Scattered at 2,500' AGL
  • Broken at 4,500' AGL
From Jan-21 @ 04:00 to Jan-21 @ 06:00
FM210400 VRB05KT P6SM SCT025 BKN045
Wind Visibility Clouds
Variable at 5 knots Greater than 6 miles
  • Scattered at 2,500' AGL
  • Broken at 4,500' AGL
PHTO 200520Z 2006/2106 22004KT P6SM VCSH SCT025 BKN045 TEMPO 2007/2011 VRB04KT -SHRA BKN025 BKN035 FM202000 12010KT P6SM SCT025 BKN045 FM210400 VRB05KT P6SM SCT025 BKN045
Issued Jan-20 @ 05:20 UTC
(6 hours ago)
Valid From Jan-20 @ 06:00 UTC
(5 hours ago)
Valid To Jan-21 @ 06:00 UTC
(in 19 hours)
Jan-20 @ 06:00 - Jan-20 @ 20:00
Wind Visibility
220° at 4 knots Greater than 6 miles
Clouds
  • Scattered at 2,500' AGL
  • Broken at 4,500' AGL
Temporary Jan-20 @ 07:00 - Jan-20 @ 11:00
Wind
Variable at 4 knots
Clouds
  • Broken at 2,500' AGL
  • Broken at 3,500' AGL
Conditions
  • Light Rain
From Jan-20 @ 20:00 - Jan-21 @ 04:00
Wind Visibility
120° at 10 knots Greater than 6 miles
Clouds
  • Scattered at 2,500' AGL
  • Broken at 4,500' AGL
From Jan-21 @ 04:00 - Jan-21 @ 06:00
Wind Visibility
Variable at 5 knots Greater than 6 miles
Clouds
  • Scattered at 2,500' AGL
  • Broken at 4,500' AGL